Decoded Metar for SBNF (NAVEGANTES in BRAZIL) (IATA:NVT) | Meteo·Mobile Aviation Weather
aviador You're here:

SBNF Decoded Metar

NAVEGANTES in BRAZIL
Report Time2018-09-21 09:10:00
UTC Time2018-09-21 09:41:01
Flight Rules lifr LIFR
Wind260° at 07 kt
W.Decomp.*RWY 25: 6.2 kt HW 3.2 kt RCW
W.Rank260° ranks 2
Current wind is above 260° avg. (6.6)
Visibility0300 m
Phenomena:Fog
Clouds:N/A
Ceiling200 ft
Temp19°C (ISA +4)
Dew Point19°C (100% RH)
QNH1014 hPa
Density Alt745 ft
Elevation16 ft
Report Wrong Elevation
Raw Report
SPECI SBNF 210910Z 26007KT 0300 FG VV002 19/19 Q1014=

Extra information for SBNF:More info

Metar Taf Metar & Taf Last 4 Metars F.Rules Stats Wind Profile Meteogram Temp Stats Airport Information Weather charts Add Link Nearby VenuesMetar ALERT Operation Metar Decoded Social comments